Time;durP1;ratioP1;P1;durP2;ratioP2;P2;SDS_P1;SDS_P2;PMS_P1;PMS_P2;Temp;Humidity;BMP_temperature;BMP_pressure;BME280_temperature;BME280_humidity;BME280_pressure;Samples;Min_cycle;Max_cycle;Signal;HPM_P1;HPM_P2
2021/09/29 00:01:08;;;;;;;4.20;3.40;;;10.90;99.90;;;;;;5030822;28;20049;-69
2021/09/29 00:03:34;;;;;;;3.83;2.90;;;10.90;99.90;;;;;;5030958;28;20054;-69
2021/09/29 00:06:00;;;;;;;4.15;3.10;;;10.90;99.90;;;;;;5030816;28;20032;-68
2021/09/29 00:08:26;;;;;;;3.88;3.08;;;10.90;99.90;;;;;;5030007;28;20021;-69
2021/09/29 00:10:52;;;;;;;3.42;3.13;;;10.90;99.90;;;;;;5030913;28;20061;-69
2021/09/29 00:13:19;;;;;;;6.95;3.20;;;10.90;99.90;;;;;;5030744;28;20533;-69
2021/09/29 00:15:45;;;;;;;3.90;3.50;;;11.00;99.90;;;;;;5030595;28;20041;-69
2021/09/29 00:18:11;;;;;;;4.30;3.25;;;11.00;99.90;;;;;;5030511;28;20025;-69
2021/09/29 00:20:36;;;;;;;6.78;2.78;;;11.00;99.90;;;;;;5030722;28;20036;-69
2021/09/29 00:23:02;;;;;;;4.25;2.80;;;11.00;99.90;;;;;;5030796;28;20057;-69
2021/09/29 00:25:28;;;;;;;5.88;3.40;;;11.00;99.90;;;;;;5030524;28;20087;-69
2021/09/29 00:27:53;;;;;;;5.55;3.08;;;11.00;99.90;;;;;;5030739;28;20029;-69
2021/09/29 00:30:20;;;;;;;4.30;3.45;;;11.00;99.90;;;;;;5030438;28;20388;-69
2021/09/29 00:32:45;;;;;;;4.88;3.22;;;11.00;99.90;;;;;;5030369;28;20426;-70
2021/09/29 00:35:13;;;;;;;5.40;3.30;;;11.00;99.90;;;;;;5030169;28;20029;-70
2021/09/29 00:37:39;;;;;;;4.55;3.25;;;11.00;99.90;;;;;;5030486;28;20052;-70
2021/09/29 00:40:07;;;;;;;4.05;3.20;;;11.00;99.90;;;;;;5030223;28;20026;-69
2021/09/29 00:42:32;;;;;;;4.88;3.40;;;11.00;99.90;;;;;;5030384;28;20064;-69
2021/09/29 00:44:58;;;;;;;6.47;3.20;;;10.90;99.90;;;;;;5030372;28;20525;-69
2021/09/29 00:47:24;;;;;;;4.85;3.47;;;10.90;99.90;;;;;;5030079;28;20101;-70
2021/09/29 00:49:50;;;;;;;3.90;3.17;;;10.90;99.90;;;;;;5030223;28;20021;-69
2021/09/29 00:52:15;;;;;;;4.63;3.17;;;10.90;99.90;;;;;;5029870;28;20601;-70
2021/09/29 00:54:41;;;;;;;5.20;3.35;;;10.80;99.90;;;;;;5029906;28;20043;-69
2021/09/29 00:57:08;;;;;;;6.97;3.60;;;10.80;99.90;;;;;;5029772;28;20075;-69
2021/09/29 00:59:35;;;;;;;4.80;3.10;;;10.80;99.90;;;;;;5029897;28;20030;-70
2021/09/29 01:02:01;;;;;;;9.70;3.65;;;10.90;99.90;;;;;;5030201;28;20038;-70
2021/09/29 01:04:28;;;;;;;8.52;3.33;;;10.90;99.90;;;;;;5029701;28;20022;-69
2021/09/29 01:07:23;;;;;;;7.22;3.70;;;10.90;99.90;;;;;;5029823;28;20037;-69
2021/09/29 01:09:58;;;;;;;4.30;3.30;;;10.90;99.90;;;;;;5029413;28;20532;-68
2021/09/29 01:12:34;;;;;;;7.40;2.85;;;10.90;99.90;;;;;;5030025;28;20431;-68
2021/09/29 01:15:11;;;;;;;5.85;3.47;;;10.90;99.90;;;;;;5030055;28;20385;-68
2021/09/29 01:17:45;;;;;;;5.60;3.50;;;10.90;99.90;;;;;;5030074;28;20038;-68
2021/09/29 01:20:28;;;;;;;4.75;3.30;;;10.90;99.90;;;;;;5028766;28;20104;-69
2021/09/29 01:23:20;;;;;;;5.70;3.28;;;10.90;99.90;;;;;;5029708;28;20025;-69
2021/09/29 01:26:13;;;;;;;6.03;3.40;;;10.90;99.90;;;;;;5029581;28;20033;-69
2021/09/29 01:28:45;;;;;;;4.80;3.30;;;10.80;99.90;;;;;;5021284;28;20474;-68
2021/09/29 01:31:13;;;;;;;7.57;3.00;;;10.90;99.90;;;;;;5029568;28;20041;-68
2021/09/29 01:33:41;;;;;;;5.57;3.38;;;10.80;99.90;;;;;;5029475;28;20555;-69
2021/09/29 01:36:07;;;;;;;3.72;3.25;;;10.80;99.90;;;;;;5029409;28;20034;-69
2021/09/29 01:38:35;;;;;;;3.97;3.28;;;10.80;99.90;;;;;;5029637;28;20032;-68
2021/09/29 01:41:01;;;;;;;6.00;2.72;;;10.80;99.90;;;;;;5029561;28;20122;-69
2021/09/29 01:43:29;;;;;;;3.60;3.03;;;10.80;99.90;;;;;;5029229;28;20040;-69
2021/09/29 01:45:55;;;;;;;4.03;3.22;;;10.80;99.90;;;;;;5029479;28;20120;-69
2021/09/29 01:48:21;;;;;;;6.72;3.35;;;10.80;99.90;;;;;;5029320;28;20026;-69
2021/09/29 01:50:50;;;;;;;4.63;3.53;;;10.80;99.90;;;;;;5029082;28;20090;-69
2021/09/29 01:53:17;;;;;;;5.03;3.22;;;10.80;99.90;;;;;;5029051;28;20043;-68
2021/09/29 01:55:44;;;;;;;5.07;3.20;;;10.80;99.90;;;;;;5029460;28;20036;-68
2021/09/29 01:58:10;;;;;;;4.80;3.42;;;10.70;99.90;;;;;;5028966;28;20124;-68
2021/09/29 02:00:37;;;;;;;4.82;3.25;;;10.70;99.90;;;;;;5028917;28;20113;-68
2021/09/29 02:03:03;;;;;;;5.18;3.80;;;10.70;99.90;;;;;;5029073;28;20616;-67
2021/09/29 02:05:33;;;;;;;4.35;3.88;;;10.70;99.90;;;;;;5027861;28;20034;-67
2021/09/29 02:08:01;;;;;;;8.70;3.75;;;10.70;99.90;;;;;;5028985;28;20021;-67
2021/09/29 02:10:27;;;;;;;5.10;3.35;;;10.70;99.90;;;;;;5029009;28;20057;-67
2021/09/29 02:12:53;;;;;;;5.68;3.97;;;10.60;99.90;;;;;;5029008;28;20385;-67
2021/09/29 02:15:19;;;;;;;7.25;3.60;;;10.60;99.90;;;;;;5028925;28;20155;-67
2021/09/29 02:17:45;;;;;;;4.43;3.78;;;10.60;99.90;;;;;;5029000;28;20040;-67
2021/09/29 02:20:12;;;;;;;7.25;3.95;;;10.70;99.90;;;;;;5028756;28;20029;-67
2021/09/29 02:22:39;;;;;;;6.00;3.30;;;10.70;99.90;;;;;;5028993;28;20030;-67
2021/09/29 02:54:09;;;;;;;5.00;3.83;;;10.70;99.90;;;;;;5031698;28;20034;-67
2021/09/29 02:56:35;;;;;;;8.18;4.03;;;10.60;99.90;;;;;;5031595;28;20057;-67
2021/09/29 02:59:02;;;;;;;6.43;3.60;;;10.70;99.90;;;;;;5031881;28;20030;-67
2021/09/29 03:01:28;;;;;;;7.85;4.13;;;10.70;99.90;;;;;;5031612;28;20041;-67
2021/09/29 03:03:54;;;;;;;17.35;4.60;;;10.70;99.90;;;;;;5031803;28;20033;-67
2021/09/29 03:06:20;;;;;;;5.40;3.78;;;10.60;99.90;;;;;;5031837;28;20022;-67
2021/09/29 03:08:45;;;;;;;4.40;4.00;;;10.50;99.90;;;;;;5031558;28;20388;-67
2021/09/29 03:11:11;;;;;;;5.88;3.70;;;10.50;99.90;;;;;;5031438;28;20405;-66
2021/09/29 03:13:37;;;;;;;4.80;3.70;;;10.50;99.90;;;;;;5031404;28;20075;-67
2021/09/29 03:16:04;;;;;;;5.05;3.85;;;10.50;99.90;;;;;;5031446;28;20028;-67
2021/09/29 03:18:29;;;;;;;4.65;4.03;;;10.50;99.90;;;;;;5031589;28;20056;-67
2021/09/29 03:20:55;;;;;;;5.50;3.53;;;10.50;99.90;;;;;;5031672;28;20478;-67
2021/09/29 03:23:21;;;;;;;5.50;3.58;;;10.50;99.90;;;;;;5031429;28;20420;-67
2021/09/29 03:25:47;;;;;;;5.93;3.63;;;10.50;99.90;;;;;;5031456;28;20040;-67
2021/09/29 03:28:12;;;;;;;6.18;3.83;;;10.50;99.90;;;;;;5031345;28;20481;-67
2021/09/29 03:30:38;;;;;;;7.97;3.88;;;10.50;99.90;;;;;;5031188;28;20029;-68
2021/09/29 03:33:06;;;;;;;5.68;3.88;;;10.50;99.90;;;;;;5031544;28;20126;-68
2021/09/29 03:35:34;;;;;;;4.70;3.88;;;10.50;99.90;;;;;;5031043;28;20036;-68
2021/09/29 03:38:00;;;;;;;4.38;3.40;;;10.50;99.90;;;;;;5031177;28;20037;-68
2021/09/29 03:40:25;;;;;;;4.10;3.70;;;10.50;99.90;;;;;;5031100;28;20022;-68
2021/09/29 03:42:51;;;;;;;9.23;4.75;;;10.50;99.90;;;;;;5029981;28;20054;-68
2021/09/29 03:45:17;;;;;;;10.50;4.20;;;10.50;99.90;;;;;;5030954;28;20146;-67
2021/09/29 03:47:44;;;;;;;11.32;3.95;;;10.50;99.90;;;;;;5031201;28;20112;-67
2021/09/29 03:50:11;;;;;;;12.18;4.45;;;10.40;99.90;;;;;;5031195;28;20041;-67
2021/09/29 03:52:36;;;;;;;4.32;3.70;;;10.40;99.90;;;;;;5030973;28;20117;-67
2021/09/29 03:55:03;;;;;;;6.07;4.40;;;10.40;99.90;;;;;;5030940;28;20473;-67
2021/09/29 03:57:28;;;;;;;5.40;4.32;;;10.40;99.90;;;;;;5030726;28;20143;-67
2021/09/29 03:59:54;;;;;;;6.65;3.85;;;10.40;99.90;;;;;;5030906;28;20472;-67
2021/09/29 04:02:21;;;;;;;5.25;4.47;;;10.40;99.90;;;;;;5031083;28;20050;-67
2021/09/29 04:04:47;;;;;;;7.38;4.65;;;10.40;99.90;;;;;;5030977;28;20036;-67
2021/09/29 04:07:13;;;;;;;9.85;4.22;;;10.40;99.90;;;;;;5030812;28;20500;-67
2021/09/29 04:09:38;;;;;;;7.20;4.45;;;10.40;99.90;;;;;;5030702;28;20022;-67
2021/09/29 04:12:04;;;;;;;6.78;4.82;;;10.40;99.90;;;;;;5030945;28;20044;-67
2021/09/29 04:14:30;;;;;;;9.95;5.28;;;10.40;99.90;;;;;;5030937;28;20024;-67
2021/09/29 04:16:56;;;;;;;6.20;4.97;;;10.50;99.90;;;;;;5030883;28;20108;-67
2021/09/29 04:19:22;;;;;;;7.60;4.70;;;10.50;99.90;;;;;;5030667;28;20047;-67
2021/09/29 04:21:47;;;;;;;6.68;4.78;;;10.50;99.90;;;;;;5030418;28;20037;-68
2021/09/29 04:24:13;;;;;;;14.10;4.65;;;10.50;99.90;;;;;;5030647;28;20026;-68
2021/09/29 04:26:40;;;;;;;5.85;4.72;;;10.50;99.90;;;;;;5030243;28;20156;-69
2021/09/29 04:29:06;;;;;;;5.80;4.32;;;10.50;99.90;;;;;;5030363;28;20029;-69
2021/09/29 04:31:32;;;;;;;7.65;4.63;;;10.60;99.90;;;;;;5030097;28;20042;-67
2021/09/29 04:33:58;;;;;;;8.77;4.68;;;10.50;99.90;;;;;;5030235;28;20029;-68
2021/09/29 04:36:23;;;;;;;8.73;4.70;;;10.50;99.90;;;;;;5028854;28;20117;-66
2021/09/29 04:38:49;;;;;;;3.13;2.13;;;10.50;99.90;;;;;;5030159;28;20021;-83
2021/09/29 04:41:15;;;;;;;5.78;3.75;;;11.40;99.90;;;;;;5030207;28;20104;-69
2021/09/29 04:43:42;;;;;;;9.70;3.80;;;12.50;99.90;;;;;;5029789;28;20449;-69
2021/09/29 04:46:08;;;;;;;22.60;4.82;;;12.60;99.90;;;;;;5029620;28;20409;-70
2021/09/29 04:48:33;;;;;;;12.73;4.38;;;12.30;99.90;;;;;;5029489;28;20033;-69
2021/09/29 04:50:59;;;;;;;7.38;3.78;;;11.90;99.90;;;;;;5029206;28;20029;-70
2021/09/29 04:53:25;;;;;;;10.57;4.00;;;11.60;99.90;;;;;;5029730;28;20474;-70
2021/09/29 04:55:51;;;;;;;6.03;4.03;;;11.40;99.90;;;;;;5028818;28;20030;-68
2021/09/29 04:58:16;;;;;;;6.53;4.18;;;11.20;99.90;;;;;;5029205;28;20078;-67
2021/09/29 05:00:42;;;;;;;10.02;4.68;;;11.20;99.90;;;;;;5029089;28;20432;-68
2021/09/29 05:03:08;;;;;;;7.90;4.53;;;11.10;99.90;;;;;;5028888;28;20048;-68
2021/09/29 05:05:35;;;;;;;6.70;4.78;;;11.00;99.90;;;;;;5029118;28;20516;-68
2021/09/29 05:08:02;;;;;;;10.18;5.28;;;10.90;99.90;;;;;;5029676;28;20170;-68
2021/09/29 05:10:38;;;;;;;10.18;5.25;;;10.80;99.90;;;;;;5027774;28;20036;-68
2021/09/29 05:13:08;;;;;;;16.02;5.30;;;10.80;99.90;;;;;;5029308;28;20393;-68
2021/09/29 05:15:34;;;;;;;14.43;5.10;;;10.70;99.90;;;;;;5029060;28;20052;-68
2021/09/29 05:17:59;;;;;;;11.68;5.10;;;10.70;99.90;;;;;;5028996;28;20296;-70
2021/09/29 05:20:25;;;;;;;20.58;5.60;;;10.70;99.90;;;;;;5029164;28;20112;-69
2021/09/29 05:22:51;;;;;;;9.93;5.63;;;10.70;99.90;;;;;;5029652;28;20036;-68
2021/09/29 05:25:17;;;;;;;10.90;5.63;;;10.80;99.90;;;;;;5029776;28;20381;-68
2021/09/29 05:27:42;;;;;;;8.13;5.50;;;10.80;99.90;;;;;;5029571;28;20042;-68
2021/09/29 05:30:08;;;;;;;11.52;6.05;;;10.80;99.90;;;;;;5029361;28;20474;-68
2021/09/29 05:32:34;;;;;;;12.50;5.47;;;10.70;99.90;;;;;;5029294;28;20109;-68
2021/09/29 05:35:00;;;;;;;13.05;6.18;;;10.80;99.90;;;;;;5029290;28;20104;-68
2021/09/29 05:37:26;;;;;;;13.73;6.18;;;10.70;99.90;;;;;;5029391;28;20113;-68
2021/09/29 05:39:51;;;;;;;22.63;8.30;;;10.70;99.90;;;;;;5029207;28;20457;-68
2021/09/29 05:42:17;;;;;;;8.45;6.53;;;10.60;99.90;;;;;;5029210;28;20029;-68
2021/09/29 05:44:43;;;;;;;19.73;6.93;;;10.60;99.90;;;;;;5029281;28;20025;-68
2021/09/29 05:47:09;;;;;;;12.68;6.38;;;10.60;99.90;;;;;;5029163;28;20067;-68
2021/09/29 05:49:35;;;;;;;10.70;6.78;;;10.60;99.90;;;;;;5028955;28;20041;-68
2021/09/29 05:52:01;;;;;;;13.18;7.05;;;10.60;99.90;;;;;;5029320;28;20044;-68
2021/09/29 05:54:28;;;;;;;17.80;7.22;;;10.60;99.90;;;;;;5029266;28;20054;-68
2021/09/29 05:56:54;;;;;;;13.73;6.72;;;10.70;99.90;;;;;;5028630;28;20080;-68
2021/09/29 05:59:19;;;;;;;17.42;7.18;;;10.80;99.90;;;;;;5029025;28;20056;-68
2021/09/29 06:01:45;;;;;;;14.85;6.90;;;10.80;99.90;;;;;;5028719;28;20017;-68
2021/09/29 06:04:12;;;;;;;18.15;7.05;;;10.90;99.90;;;;;;5042528;28;20077;-69
2021/09/29 06:06:38;;;;;;;16.65;7.50;;;11.10;99.90;;;;;;5026097;28;20026;-67
2021/09/29 06:09:04;;;;;;;14.35;7.22;;;11.10;99.90;;;;;;5028445;28;20041;-67
2021/09/29 06:11:30;;;;;;;10.98;6.82;;;11.10;99.90;;;;;;5027120;28;20037;-69
2021/09/29 06:14:01;;;;;;;16.55;6.93;;;11.10;99.90;;;;;;5028271;28;20029;-68
2021/09/29 06:16:27;;;;;;;12.98;6.93;;;11.20;99.90;;;;;;5028913;28;20033;-68
2021/09/29 06:18:52;;;;;;;13.05;7.35;;;11.40;99.90;;;;;;5025157;28;20715;-68
2021/09/29 06:21:18;;;;;;;17.33;6.93;;;11.60;99.90;;;;;;5028378;28;20038;-68
2021/09/29 06:23:44;;;;;;;16.45;7.22;;;11.70;99.90;;;;;;5028415;28;20105;-67
2021/09/29 06:26:10;;;;;;;48.22;8.00;;;11.90;99.90;;;;;;5027028;28;20025;-67
2021/09/29 06:28:38;;;;;;;26.70;7.63;;;12.00;99.90;;;;;;5028600;28;20096;-67
2021/09/29 06:31:05;;;;;;;10.25;6.82;;;11.90;99.90;;;;;;5028350;28;20072;-68
2021/09/29 06:33:31;;;;;;;9.60;7.03;;;11.80;99.90;;;;;;5028148;28;20024;-65
2021/09/29 06:35:57;;;;;;;23.55;7.25;;;11.80;99.90;;;;;;5028184;28;20026;-68
2021/09/29 06:38:22;;;;;;;14.85;6.95;;;11.80;99.90;;;;;;5028214;28;20426;-68
2021/09/29 06:40:50;;;;;;;9.82;7.30;;;11.90;99.90;;;;;;5028422;28;20627;-67
2021/09/29 06:43:16;;;;;;;9.73;7.18;;;11.90;99.90;;;;;;5027988;28;20030;-67
2021/09/29 06:45:42;;;;;;;9.82;7.50;;;11.90;99.90;;;;;;5027527;28;20014;-67
2021/09/29 06:48:10;;;;;;;11.90;6.97;;;11.80;99.90;;;;;;5028310;28;20423;-67
2021/09/29 06:50:36;;;;;;;11.82;7.57;;;11.90;99.90;;;;;;5028018;28;20030;-67
2021/09/29 06:53:02;;;;;;;20.98;7.78;;;11.80;99.90;;;;;;5028413;28;20041;-68
2021/09/29 06:55:28;;;;;;;13.65;7.82;;;11.80;99.90;;;;;;5028183;28;20029;-71
2021/09/29 06:57:55;;;;;;;12.55;8.65;;;11.70;99.90;;;;;;5027690;28;20078;-72
2021/09/29 07:00:22;;;;;;;15.30;8.30;;;11.80;99.90;;;;;;5028021;28;20105;-71
2021/09/29 07:02:47;;;;;;;17.08;8.90;;;11.70;99.90;;;;;;5028028;28;20122;-72
2021/09/29 07:05:15;;;;;;;23.83;8.93;;;11.60;99.90;;;;;;5007190;28;20507;-72
2021/09/29 07:07:41;;;;;;;11.85;9.02;;;11.60;99.90;;;;;;5024743;28;20021;-72
2021/09/29 07:10:08;;;;;;;19.67;9.80;;;11.60;99.90;;;;;;5027539;28;20032;-73
2021/09/29 07:12:36;;;;;;;28.65;10.27;;;11.50;99.90;;;;;;5027133;28;20073;-71
2021/09/29 07:15:02;;;;;;;17.77;10.30;;;11.40;99.90;;;;;;5027048;28;20053;-69
2021/09/29 07:17:27;;;;;;;12.93;10.30;;;11.40;99.90;;;;;;5027805;28;20025;-69
2021/09/29 07:19:57;;;;;;;11.50;9.95;;;11.40;99.90;;;;;;5030088;28;20124;-70
2021/09/29 07:22:24;;;;;;;18.42;9.90;;;11.40;99.90;;;;;;5030868;28;20053;-70
2021/09/29 07:24:50;;;;;;;14.73;10.57;;;11.20;99.90;;;;;;5027868;28;20036;-71
2021/09/29 07:27:16;;;;;;;13.27;9.90;;;11.30;99.90;;;;;;5030612;28;20018;-70
2021/09/29 07:29:42;;;;;;;13.80;9.02;;;11.20;99.90;;;;;;5030450;28;20494;-70
2021/09/29 07:32:07;;;;;;;15.48;9.30;;;11.20;99.90;;;;;;5029396;28;20114;-70
2021/09/29 07:34:33;;;;;;;13.25;9.38;;;11.20;99.90;;;;;;5030378;28;20522;-70
2021/09/29 07:36:59;;;;;;;11.30;8.75;;;11.20;99.90;;;;;;5030701;28;20032;-70
2021/09/29 07:39:25;;;;;;;12.02;9.40;;;11.10;99.90;;;;;;5030771;28;20411;-71
2021/09/29 07:41:50;;;;;;;13.15;10.52;;;11.10;99.90;;;;;;5030747;28;20621;-72
2021/09/29 07:44:16;;;;;;;16.70;9.32;;;11.10;99.90;;;;;;5030700;28;20046;-71
2021/09/29 07:46:44;;;;;;;21.92;10.20;;;11.80;99.90;;;;;;5030644;28;20503;-67
2021/09/29 07:49:11;;;;;;;14.93;10.02;;;11.70;99.90;;;;;;5030987;28;20026;-67
2021/09/29 07:51:37;;;;;;;11.27;9.10;;;11.70;99.90;;;;;;5029986;28;20038;-67
2021/09/29 07:54:03;;;;;;;17.15;8.85;;;11.60;99.90;;;;;;5030776;28;20029;-67
2021/09/29 07:56:29;;;;;;;15.32;9.90;;;11.50;99.90;;;;;;5030834;28;20029;-67
2021/09/29 07:58:54;;;;;;;15.63;9.70;;;11.50;99.90;;;;;;5030952;28;20492;-67
2021/09/29 08:01:20;;;;;;;11.98;8.75;;;11.50;99.90;;;;;;5030977;28;20036;-67
2021/09/29 08:03:46;;;;;;;11.15;8.35;;;11.50;99.90;;;;;;5030609;28;20033;-67
2021/09/29 08:06:13;;;;;;;12.40;8.00;;;11.40;99.90;;;;;;5030820;28;20033;-67
2021/09/29 08:08:38;;;;;;;15.00;8.38;;;11.40;99.90;;;;;;5030524;28;20121;-67
2021/09/29 08:11:06;;;;;;;15.57;8.75;;;11.30;99.90;;;;;;5030420;28;20112;-67
2021/09/29 08:13:32;;;;;;;12.27;8.88;;;11.30;99.90;;;;;;5030446;28;20032;-67
2021/09/29 08:15:59;;;;;;;14.75;9.00;;;11.20;99.90;;;;;;5030378;28;20082;-67
2021/09/29 08:18:25;;;;;;;14.77;8.40;;;11.20;99.90;;;;;;5030371;28;20479;-68
2021/09/29 08:20:53;;;;;;;11.95;8.10;;;11.20;99.90;;;;;;5030536;28;20069;-67
2021/09/29 08:23:32;;;;;;;9.98;8.45;;;11.20;99.90;;;;;;5030647;28;20479;-67
2021/09/29 08:38:48;;;;;;;11.00;8.55;;;11.60;99.90;;;;;;5030101;28;20050;-66
2021/09/29 08:42:07;;;;;;;16.92;9.00;;;11.50;99.90;;;;;;5030155;28;20078;-66
2021/09/29 08:44:07;;;;;;;19.75;9.30;;;11.60;99.90;;;;;;5018618;28;20038;-66
2021/09/29 08:47:40;;;;;;;13.88;8.48;;;11.50;99.90;;;;;;5029590;28;20040;-66
2021/09/29 08:49:46;;;;;;;9.73;8.07;;;11.60;99.90;;;;;;5015922;28;20094;-66
2021/09/29 09:16:32;;;;;;;12.85;7.10;;;12.50;99.90;;;;;;5029785;28;20106;-66
2021/09/29 09:19:08;;;;;;;9.77;7.18;;;12.60;99.90;;;;;;5028818;28;20090;-66
2021/09/29 09:21:50;;;;;;;10.40;6.70;;;12.50;99.90;;;;;;5029615;28;20090;-66
2021/09/29 09:24:23;;;;;;;11.98;6.85;;;12.50;99.90;;;;;;5029665;28;20515;-66
2021/09/29 09:27:03;;;;;;;11.77;6.95;;;12.50;99.90;;;;;;5029188;28;20469;-66
2021/09/29 09:29:30;;;;;;;31.15;7.13;;;12.40;99.90;;;;;;5029737;28;20096;-66
2021/09/29 09:32:12;;;;;;;13.52;6.93;;;12.50;99.90;;;;;;5029119;28;20114;-66
2021/09/29 09:34:39;;;;;;;23.73;7.32;;;12.50;99.90;;;;;;5029366;28;20287;-66
2021/09/29 09:37:13;;;;;;;12.98;6.45;;;12.50;99.90;;;;;;5029009;28;20029;-67
2021/09/29 09:39:40;;;;;;;19.33;7.30;;;12.50;99.90;;;;;;5029113;28;20026;-67
2021/09/29 09:42:08;;;;;;;35.22;7.82;;;12.50;99.90;;;;;;5028326;28;20439;-67
2021/09/29 09:44:41;;;;;;;16.23;7.30;;;12.50;99.90;;;;;;5029207;28;20021;-67
2021/09/29 09:47:18;;;;;;;13.75;7.43;;;12.50;99.90;;;;;;5029012;28;20029;-67
2021/09/29 09:49:52;;;;;;;10.43;6.82;;;12.60;99.90;;;;;;5029247;28;20104;-67
2021/09/29 09:52:41;;;;;;;10.98;7.25;;;12.60;99.90;;;;;;5029426;28;20393;-67
2021/09/29 09:55:12;;;;;;;12.07;7.38;;;12.60;99.90;;;;;;5029153;28;20556;-67
2021/09/29 09:57:39;;;;;;;18.02;6.93;;;12.60;99.90;;;;;;5029033;28;20061;-66
2021/09/29 10:00:08;;;;;;;28.50;6.90;;;12.70;99.90;;;;;;5028933;28;20541;-67
2021/09/29 10:02:41;;;;;;;9.75;6.43;;;12.70;99.90;;;;;;5028874;28;20034;-67
2021/09/29 10:05:09;;;;;;;11.07;7.20;;;12.70;99.90;;;;;;5028793;28;20057;-66
2021/09/29 10:07:35;;;;;;;9.85;5.18;;;12.70;99.90;;;;;;5028960;28;20034;-67
2021/09/29 10:10:55;;;;;;;18.35;6.53;;;12.70;99.90;;;;;;5028978;28;20508;-67
2021/09/29 10:24:11;;;;;;;9.23;6.57;;;12.50;99.90;;;;;;5028667;28;20082;-67
2021/09/29 10:26:37;;;;;;;8.93;5.85;;;12.50;99.90;;;;;;5028646;28;20025;-67
2021/09/29 10:29:05;;;;;;;8.50;6.20;;;12.40;99.90;;;;;;5028267;28;20033;-67
2021/09/29 10:32:01;;;;;;;9.48;6.53;;;12.50;99.90;;;;;;5028357;28;20048;-66
2021/09/29 10:34:36;;;;;;;8.68;6.13;;;12.40;99.90;;;;;;5028374;28;20392;-67
2021/09/29 11:27:24;;;;;;;14.70;7.18;;;12.30;99.90;;;;;;5031574;28;20040;-67
2021/09/29 11:28:59;;;;;;;11.00;7.07;;;12.50;99.90;;;;;;5031486;28;20032;-67
2021/09/29 11:31:41;;;;;;;8.50;6.55;;;12.50;99.90;;;;;;5031388;28;20029;-68
2021/09/29 11:34:13;;;;;;;8.90;6.60;;;12.40;99.90;;;;;;5031471;28;20033;-68
2021/09/29 12:10:18;;;;;;;38.50;8.00;;;12.30;99.90;;;;;;5031100;28;20503;-68
2021/09/29 12:12:27;;;;;;;21.40;6.85;;;12.30;99.90;;;;;;5019668;28;20132;-67
2021/09/29 12:15:04;;;;;;;10.82;6.05;;;12.30;99.90;;;;;;5030688;28;20025;-68
2021/09/29 12:17:38;;;;;;;8.35;6.22;;;12.30;99.90;;;;;;5030617;28;20036;-68
2021/09/29 12:20:12;;;;;;;8.98;6.78;;;12.30;99.90;;;;;;5030294;28;20037;-68
2021/09/29 12:22:41;;;;;;;7.57;6.28;;;12.20;99.90;;;;;;5030742;28;20226;-67
2021/09/29 12:25:14;;;;;;;13.13;6.18;;;12.20;99.90;;;;;;5030658;28;20121;-68
2021/09/29 12:27:49;;;;;;;12.38;6.38;;;12.10;99.90;;;;;;5029046;28;20419;-67
2021/09/29 12:30:21;;;;;;;10.73;6.45;;;12.10;99.90;;;;;;5030464;28;20038;-68
2021/09/29 12:33:16;;;;;;;9.27;5.95;;;12.00;99.90;;;;;;5030688;28;20102;-68
2021/09/29 12:35:47;;;;;;;9.57;7.30;;;12.00;99.90;;;;;;5030397;28;20423;-68
2021/09/29 12:38:14;;;;;;;7.55;6.75;;;11.90;99.90;;;;;;5030203;28;20086;-68
2021/09/29 12:40:42;;;;;;;12.13;6.85;;;11.90;99.90;;;;;;5030212;28;20117;-68
2021/09/29 12:43:17;;;;;;;12.85;6.47;;;12.00;99.90;;;;;;5030389;28;20073;-67
2021/09/29 12:45:49;;;;;;;12.00;7.10;;;11.90;99.90;;;;;;5030184;28;20032;-67
2021/09/29 12:48:18;;;;;;;10.27;6.90;;;11.80;99.90;;;;;;5029904;28;20037;-68
2021/09/29 12:55:50;;;;;;;16.63;8.02;;;11.60;99.90;;;;;;5030107;28;20505;-68
2021/09/29 12:58:16;;;;;;;9.85;7.88;;;11.60;99.90;;;;;;5029510;28;20058;-67
2021/09/29 13:00:42;;;;;;;9.95;7.18;;;11.50;99.90;;;;;;5029832;28;20032;-65
2021/09/29 13:03:07;;;;;;;8.60;7.40;;;11.40;99.90;;;;;;5029800;28;20158;-66
2021/09/29 13:05:33;;;;;;;12.57;7.55;;;11.40;99.90;;;;;;5029732;28;20040;-65
2021/09/29 13:07:59;;;;;;;19.65;8.02;;;11.40;99.90;;;;;;5029729;28;20033;-65
2021/09/29 13:10:25;;;;;;;10.68;7.43;;;11.40;99.90;;;;;;5029858;28;20034;-65
2021/09/29 13:12:52;;;;;;;12.43;6.97;;;11.40;99.90;;;;;;5029625;28;20496;-65
2021/09/29 13:15:21;;;;;;;14.43;7.10;;;11.30;99.90;;;;;;5029341;28;20033;-65
2021/09/29 13:17:50;;;;;;;10.17;6.90;;;11.30;99.90;;;;;;5029851;28;20456;-68
2021/09/29 13:20:27;;;;;;;12.25;7.63;;;11.30;99.90;;;;;;5029421;28;20313;-66
2021/09/29 13:22:58;;;;;;;24.98;8.13;;;11.30;99.90;;;;;;5029600;28;20025;-66
2021/09/29 13:36:41;;;;;;;18.50;7.55;;;11.10;99.90;;;;;;5029581;28;20116;-66
2021/09/29 13:39:11;;;;;;;12.05;7.90;;;11.10;99.90;;;;;;5029122;28;20026;-66
2021/09/29 13:41:39;;;;;;;11.30;7.25;;;11.10;99.90;;;;;;5029356;28;20018;-66
2021/09/29 13:44:06;;;;;;;10.52;7.15;;;11.10;99.90;;;;;;5029358;28;20022;-66
2021/09/29 13:46:32;;;;;;;15.32;8.52;;;11.10;99.90;;;;;;5029329;28;20029;-66
2021/09/29 13:48:59;;;;;;;31.08;8.70;;;11.10;99.90;;;;;;5029193;28;20108;-68
2021/09/29 13:51:27;;;;;;;14.32;8.50;;;11.10;99.90;;;;;;5029369;28;20037;-67
2021/09/29 13:53:54;;;;;;;12.38;7.88;;;11.10;99.90;;;;;;5029103;28;20529;-67
2021/09/29 13:56:24;;;;;;;19.13;7.90;;;11.20;99.90;;;;;;5029057;28;20389;-67
2021/09/29 13:59:04;;;;;;;14.90;8.60;;;11.20;99.90;;;;;;5029396;28;20069;-66
2021/09/29 14:28:33;;;;;;;12.25;7.97;;;10.90;99.90;;;;;;5028975;28;20033;-67
2021/09/29 14:29:17;;;;;;;17.90;9.77;;;10.90;99.90;;;;;;5032182;28;20074;-67
2021/09/29 14:34:18;;;;;;;11.90;8.90;;;10.80;99.90;;;;;;5032137;28;20024;-63
2021/09/29 14:36:45;;;;;;;12.38;8.20;;;10.80;99.90;;;;;;5032557;28;20025;-66
2021/09/29 14:39:11;;;;;;;14.40;7.80;;;10.80;99.90;;;;;;5032106;28;20066;-67
2021/09/29 14:41:37;;;;;;;12.18;7.78;;;10.80;99.90;;;;;;5032470;28;20025;-66
2021/09/29 14:44:03;;;;;;;10.30;7.53;;;10.70;99.90;;;;;;5031881;28;20025;-66
2021/09/29 14:46:29;;;;;;;8.00;6.63;;;10.70;99.90;;;;;;5032042;28;20030;-66
2021/09/29 14:48:54;;;;;;;11.50;8.13;;;10.70;99.90;;;;;;5032215;28;20028;-67
2021/09/29 14:51:20;;;;;;;14.35;7.53;;;10.70;99.90;;;;;;5031826;28;20045;-66
2021/09/29 14:53:50;;;;;;;12.40;7.03;;;10.60;99.90;;;;;;5031868;28;20018;-66
2021/09/29 14:56:18;;;;;;;13.52;7.88;;;10.50;99.90;;;;;;5031826;28;20053;-67
2021/09/29 14:58:44;;;;;;;10.30;8.00;;;10.50;99.90;;;;;;5031917;28;20044;-66
2021/09/29 15:01:10;;;;;;;9.23;7.18;;;10.50;99.90;;;;;;5031606;28;20480;-66
2021/09/29 15:03:36;;;;;;;9.30;7.43;;;10.50;99.90;;;;;;5032050;28;20056;-66
2021/09/29 15:06:03;;;;;;;9.88;7.18;;;10.50;99.90;;;;;;5031775;28;20017;-66
2021/09/29 15:08:31;;;;;;;10.88;8.00;;;10.50;99.90;;;;;;5031738;28;20380;-66
2021/09/29 15:10:57;;;;;;;10.10;7.70;;;10.40;99.90;;;;;;5031643;28;20465;-66
2021/09/29 15:13:33;;;;;;;12.95;8.35;;;10.40;99.90;;;;;;5031347;28;20045;-66
2021/09/29 15:16:03;;;;;;;20.30;8.10;;;10.40;99.90;;;;;;5032000;28;20259;-66
2021/09/29 15:51:28;;;;;;;12.65;8.35;;;10.20;99.90;;;;;;5031220;28;20770;-66
2021/09/29 16:01:38;;;;;;;10.68;8.35;;;10.10;99.90;;;;;;5031046;28;20036;-66
2021/09/29 16:07:13;;;;;;;9.20;7.60;;;10.10;99.90;;;;;;5031184;28;20033;-66
2021/09/29 16:31:10;;;;;;;12.00;8.10;;;11.80;99.90;;;;;;5030871;28;20083;-67
2021/09/29 16:36:13;;;;;;;21.85;9.38;;;11.30;99.90;;;;;;5030439;28;20346;-67
2021/09/29 16:38:41;;;;;;;10.23;8.55;;;10.90;99.90;;;;;;5030465;28;20029;-68
2021/09/29 16:41:07;;;;;;;11.73;8.40;;;10.70;99.90;;;;;;5029236;28;20026;-68
2021/09/29 16:43:33;;;;;;;13.75;8.38;;;10.60;99.90;;;;;;5030358;28;20065;-68
2021/09/29 16:46:00;;;;;;;17.13;8.45;;;10.50;99.90;;;;;;5030416;28;20025;-68
2021/09/29 16:48:27;;;;;;;18.42;8.77;;;10.40;99.90;;;;;;5030223;28;20029;-68
2021/09/29 16:51:10;;;;;;;13.35;8.93;;;10.40;99.90;;;;;;5029860;28;20045;-68
2021/09/29 16:53:41;;;;;;;20.65;8.80;;;10.30;99.90;;;;;;5030231;28;20112;-68
2021/09/29 16:56:09;;;;;;;20.75;9.77;;;10.30;99.90;;;;;;5030237;28;20025;-68
2021/09/29 17:01:09;;;;;;;11.60;8.95;;;10.30;99.90;;;;;;5030061;28;20024;-68
2021/09/29 17:03:35;;;;;;;12.43;9.15;;;10.20;99.90;;;;;;5030230;28;20053;-68
2021/09/29 17:06:02;;;;;;;8.88;4.75;;;10.20;99.90;;;;;;5029944;28;20030;-70
2021/09/29 17:08:28;;;;;;;11.50;7.80;;;10.20;99.90;;;;;;5029802;28;20026;-66
2021/09/29 17:10:54;;;;;;;14.15;8.25;;;11.20;99.90;;;;;;5029664;28;20036;-65
2021/09/29 17:13:23;;;;;;;15.57;8.35;;;11.00;99.90;;;;;;5029561;28;20033;-65
2021/09/29 17:15:50;;;;;;;11.85;8.23;;;10.80;99.90;;;;;;5029051;28;20033;-65
2021/09/29 17:18:16;;;;;;;11.75;8.57;;;10.60;99.90;;;;;;5029263;28;20021;-65
2021/09/29 17:20:42;;;;;;;16.98;9.25;;;10.50;99.90;;;;;;5029933;28;20059;-65